createdAt,value
2023-03-24T00:00:17.224Z,12.93
2023-03-24T00:01:16.800Z,12.92
2023-03-24T00:02:16.564Z,12.93
2023-03-24T00:03:17.682Z,12.92
2023-03-24T00:04:16.744Z,12.90
2023-03-24T00:05:16.358Z,12.90
2023-03-24T00:06:16.897Z,12.92
2023-03-24T00:07:16.412Z,12.90
2023-03-24T00:08:16.937Z,12.90
2023-03-24T00:09:16.465Z,12.88
2023-03-24T00:10:17.021Z,12.88
2023-03-24T00:11:16.574Z,12.88
2023-03-24T00:12:16.424Z,12.88
2023-03-24T00:13:16.993Z,12.88
2023-03-24T00:14:16.544Z,12.87
2023-03-24T00:15:17.101Z,12.86
2023-03-24T00:16:16.671Z,12.84
2023-03-24T00:17:16.490Z,12.87
2023-03-24T00:18:17.053Z,12.87
2023-03-24T00:19:16.588Z,12.84
2023-03-24T00:20:17.142Z,12.83
2023-03-24T00:21:16.684Z,12.83
2023-03-24T00:22:16.694Z,12.84
2023-03-24T00:23:17.249Z,12.84
2023-03-24T00:24:16.847Z,12.86
2023-03-24T00:25:16.396Z,12.87
2023-03-24T00:26:16.966Z,12.83
2023-03-24T00:27:16.515Z,12.83
2023-03-24T00:28:17.087Z,12.84
2023-03-24T00:29:16.625Z,12.84
2023-03-24T00:30:17.194Z,12.83
2023-03-24T00:31:16.800Z,12.82
2023-03-24T00:32:16.813Z,12.83
2023-03-24T00:33:16.352Z,12.82
2023-03-24T00:34:16.870Z,12.79
2023-03-24T00:35:16.448Z,12.77
2023-03-24T00:36:17.024Z,12.77
2023-03-24T00:37:16.669Z,12.77
2023-03-24T00:38:17.187Z,12.77
2023-03-24T00:39:16.737Z,12.76
2023-03-24T00:40:17.272Z,12.75
2023-03-24T00:41:16.879Z,12.76
2023-03-24T00:42:16.673Z,12.79
2023-03-24T00:43:17.241Z,12.75
2023-03-24T00:44:16.782Z,12.75
2023-03-24T00:45:16.376Z,12.73
2023-03-24T00:46:16.929Z,12.70
2023-03-24T00:47:16.510Z,12.68
2023-03-24T00:48:17.040Z,12.68
2023-03-24T00:49:16.572Z,12.63
2023-03-24T00:50:17.115Z,12.60
2023-03-24T00:51:16.680Z,12.58
2023-03-24T00:52:16.399Z,12.56
2023-03-24T00:53:16.946Z,12.55
2023-03-24T00:54:16.503Z,12.51
2023-03-24T00:55:17.038Z,12.55
2023-03-24T00:56:16.651Z,12.52
2023-03-24T00:57:17.210Z,12.55
2023-03-24T00:58:16.762Z,12.52
2023-03-24T00:59:17.294Z,12.49
2023-03-24T01:00:16.869Z,12.49
2023-03-24T01:01:16.433Z,12.48
2023-03-24T01:02:17.227Z,12.47
2023-03-24T01:03:16.880Z,12.51
2023-03-24T01:04:16.510Z,12.52
2023-03-24T01:05:17.048Z,12.52
2023-03-24T01:06:16.601Z,12.49
2023-03-24T01:07:17.121Z,12.45
2023-03-24T01:08:16.666Z,12.44
2023-03-24T01:09:17.212Z,12.41
2023-03-24T01:10:16.766Z,12.42
2023-03-24T01:11:16.306Z,12.44
2023-03-24T01:12:17.205Z,12.42
2023-03-24T01:13:16.742Z,12.42
2023-03-24T01:14:17.311Z,12.42
2023-03-24T01:15:16.905Z,12.41
2023-03-24T01:16:16.481Z,12.38
2023-03-24T01:17:17.144Z,12.40
2023-03-24T01:18:16.668Z,12.37
2023-03-24T01:19:17.583Z,12.34
2023-03-24T01:20:16.361Z,12.30
2023-03-24T01:21:16.905Z,12.30
2023-03-24T01:22:16.737Z,12.30
2023-03-24T01:23:17.257Z,12.28
2023-03-24T01:24:16.802Z,12.28
2023-03-24T01:25:16.350Z,12.28
2023-03-24T01:26:16.914Z,12.24
2023-03-24T01:27:16.469Z,12.27
2023-03-24T01:28:17.015Z,12.24
2023-03-24T01:29:16.549Z,12.25
2023-03-24T01:30:17.086Z,12.24
2023-03-24T01:31:16.646Z,12.25
2023-03-24T01:32:17.008Z,12.30
2023-03-24T01:33:16.564Z,12.30
2023-03-24T01:34:17.117Z,12.30
2023-03-24T01:35:16.666Z,12.30
2023-03-24T01:36:17.304Z,12.30
2023-03-24T01:37:16.889Z,12.30
2023-03-24T01:38:16.433Z,12.35
2023-03-24T01:39:16.967Z,12.37
2023-03-24T01:40:16.502Z,12.40
2023-03-24T01:41:17.038Z,12.41
2023-03-24T01:42:16.658Z,12.42
2023-03-24T01:43:17.188Z,12.42
2023-03-24T01:44:16.708Z,12.44
2023-03-24T01:45:17.240Z,12.48
2023-03-24T01:46:16.792Z,12.53
2023-03-24T01:47:16.453Z,12.53
2023-03-24T01:48:17.005Z,12.55
2023-03-24T01:49:16.552Z,12.51
2023-03-24T01:50:17.088Z,12.53
2023-03-24T01:51:16.633Z,12.58
2023-03-24T01:52:16.910Z,12.53
2023-03-24T01:53:16.452Z,12.55
2023-03-24T01:54:17.009Z,12.60
2023-03-24T01:55:16.585Z,12.62
2023-03-24T01:56:17.217Z,12.62
2023-03-24T01:57:16.756Z,12.60
2023-03-24T01:58:17.288Z,12.60
2023-03-24T01:59:16.840Z,12.59
2023-03-24T02:00:16.380Z,12.55
2023-03-24T02:01:17.006Z,12.55
2023-03-24T02:02:16.963Z,12.52
2023-03-24T02:03:16.489Z,12.49
2023-03-24T02:04:17.037Z,12.47
2023-03-24T02:05:16.681Z,12.47
2023-03-24T02:06:17.269Z,12.48
2023-03-24T02:07:16.818Z,12.44
2023-03-24T02:08:16.373Z,12.41
2023-03-24T02:09:16.926Z,12.38
2023-03-24T02:10:16.502Z,12.37
2023-03-24T02:11:17.076Z,12.41
2023-03-24T02:12:17.043Z,12.37
2023-03-24T02:13:16.573Z,12.34
2023-03-24T02:14:17.103Z,12.31
2023-03-24T02:15:16.680Z,12.32
2023-03-24T02:16:17.646Z,12.34
2023-03-24T02:17:17.250Z,12.34
2023-03-24T02:18:16.843Z,12.37
2023-03-24T02:19:16.378Z,12.37
2023-03-24T02:20:16.950Z,12.34
2023-03-24T02:21:16.494Z,12.32
2023-03-24T02:22:16.841Z,12.34
2023-03-24T02:23:16.368Z,12.31
2023-03-24T02:24:17.077Z,12.34
2023-03-24T02:25:16.609Z,12.34
2023-03-24T02:26:17.204Z,12.34
2023-03-24T02:27:16.745Z,12.38
2023-03-24T02:28:17.273Z,12.40
2023-03-24T02:29:16.820Z,12.40
2023-03-24T02:30:16.382Z,12.37
2023-03-24T02:31:16.961Z,12.41
2023-03-24T02:32:16.638Z,12.40
2023-03-24T02:33:17.217Z,12.44
2023-03-24T02:34:16.795Z,12.44
2023-03-24T02:35:16.351Z,12.45
2023-03-24T02:36:16.884Z,12.41
2023-03-24T02:37:16.510Z,12.47
2023-03-24T02:38:17.039Z,12.44
2023-03-24T02:39:16.589Z,12.47
2023-03-24T02:40:17.156Z,12.48
2023-03-24T02:41:16.708Z,12.53
2023-03-24T02:42:16.394Z,12.59
2023-03-24T02:43:16.929Z,12.51
2023-03-24T02:44:16.514Z,12.47
2023-03-24T02:45:17.310Z,12.47
2023-03-24T02:46:16.918Z,12.47
2023-03-24T02:47:16.547Z,12.47
2023-03-24T02:48:17.082Z,12.52
2023-03-24T02:49:16.661Z,12.53
2023-03-24T02:50:17.254Z,12.52
2023-03-24T02:51:16.797Z,12.51
2023-03-24T02:52:16.912Z,12.52
2023-03-24T02:53:16.468Z,12.51
2023-03-24T02:54:17.007Z,12.55
2023-03-24T02:55:16.586Z,12.62
2023-03-24T02:56:17.132Z,12.59
2023-03-24T02:57:16.652Z,12.65
2023-03-24T02:58:17.174Z,12.66
2023-03-24T02:59:16.729Z,12.68
2023-03-24T03:00:17.282Z,12.66
2023-03-24T03:01:16.879Z,12.66
2023-03-24T03:02:16.964Z,12.65
2023-03-24T03:03:16.549Z,12.66
2023-03-24T03:04:17.176Z,12.68
2023-03-24T03:05:16.957Z,12.66
2023-03-24T03:06:16.503Z,12.68
2023-03-24T03:07:17.124Z,12.65
2023-03-24T03:08:16.689Z,12.62
2023-03-24T03:09:17.236Z,12.65
2023-03-24T03:10:16.763Z,12.65
2023-03-24T03:11:17.303Z,12.68
2023-03-24T03:12:16.958Z,12.66
2023-03-24T03:13:16.489Z,12.70
2023-03-24T03:14:17.082Z,12.75
2023-03-24T03:15:16.615Z,12.75
2023-03-24T03:16:17.197Z,12.75
2023-03-24T03:17:16.795Z,12.75
2023-03-24T03:18:16.422Z,12.79
2023-03-24T03:19:16.974Z,12.76
2023-03-24T03:20:16.498Z,12.76
2023-03-24T03:21:17.026Z,12.76
2023-03-24T03:22:16.961Z,12.77
2023-03-24T03:23:16.502Z,12.79
2023-03-24T03:24:17.060Z,12.82
2023-03-24T03:25:16.600Z,12.84
2023-03-24T03:26:17.188Z,12.82
2023-03-24T03:27:16.744Z,12.80
2023-03-24T03:28:17.286Z,12.79
2023-03-24T03:29:16.819Z,12.80
2023-03-24T03:30:16.412Z,12.80
2023-03-24T03:31:16.643Z,12.82
2023-03-24T03:32:17.073Z,12.83
2023-03-24T03:33:16.642Z,12.80
2023-03-24T03:34:16.605Z,12.80
2023-03-24T03:35:17.148Z,12.82
2023-03-24T03:36:16.713Z,12.79
2023-03-24T03:37:16.341Z,12.80
2023-03-24T03:38:16.894Z,12.79
2023-03-24T03:39:16.421Z,12.77
2023-03-24T03:40:16.962Z,12.73
2023-03-24T03:41:16.520Z,12.72
2023-03-24T03:42:16.517Z,12.72
2023-03-24T03:43:17.058Z,12.76
2023-03-24T03:44:16.628Z,12.75
2023-03-24T03:45:17.160Z,12.80
2023-03-24T03:46:16.896Z,12.76
2023-03-24T03:47:16.604Z,12.73
2023-03-24T03:48:17.141Z,12.73
2023-03-24T03:49:16.680Z,12.73
2023-03-24T03:50:17.216Z,12.72
2023-03-24T03:51:16.809Z,12.69
2023-03-24T03:52:16.951Z,12.70
2023-03-24T03:53:16.498Z,12.70
2023-03-24T03:54:17.041Z,12.70
2023-03-24T03:55:16.587Z,12.72
2023-03-24T03:56:17.117Z,12.69
2023-03-24T03:57:16.669Z,12.68
2023-03-24T03:58:17.241Z,12.68
2023-03-24T03:59:16.815Z,12.69
2023-03-24T04:00:16.377Z,12.69
2023-03-24T04:01:16.941Z,12.69
2023-03-24T04:02:17.136Z,12.68
2023-03-24T04:03:16.833Z,12.65
2023-03-24T04:04:16.553Z,12.65
2023-03-24T04:05:17.092Z,12.65
2023-03-24T04:06:16.602Z,12.63
2023-03-24T04:07:17.144Z,12.63
2023-03-24T04:08:16.673Z,12.66
2023-03-24T04:09:17.202Z,12.68
2023-03-24T04:10:16.749Z,12.66
2023-03-24T04:11:17.321Z,12.66
2023-03-24T04:12:17.129Z,12.65
2023-03-24T04:13:16.697Z,12.65
2023-03-24T04:14:17.268Z,12.65
2023-03-24T04:15:16.806Z,12.66
2023-03-24T04:16:16.345Z,12.65
2023-03-24T04:17:16.972Z,12.72
2023-03-24T04:18:16.508Z,12.69
2023-03-24T04:19:17.045Z,12.69
2023-03-24T04:20:16.574Z,12.66
2023-03-24T04:21:17.199Z,12.70
2023-03-24T04:22:16.955Z,12.68
2023-03-24T04:23:16.502Z,12.70
2023-03-24T04:24:17.053Z,12.69
2023-03-24T04:25:16.613Z,12.70
2023-03-24T04:26:17.153Z,12.69
2023-03-24T04:27:16.717Z,12.66
2023-03-24T04:28:17.266Z,12.68
2023-03-24T04:29:16.826Z,12.68
2023-03-24T04:30:16.804Z,12.68
2023-03-24T04:31:16.516Z,12.65
2023-03-24T04:32:16.777Z,12.63
2023-03-24T04:33:17.338Z,12.63
2023-03-24T04:34:16.901Z,12.62
2023-03-24T04:35:16.437Z,12.63
2023-03-24T04:36:17.018Z,12.59
2023-03-24T04:37:16.743Z,12.58
2023-03-24T04:38:17.342Z,12.62
2023-03-24T04:39:16.912Z,12.60
2023-03-24T04:40:16.574Z,12.60
2023-03-24T04:41:17.130Z,12.56
2023-03-24T04:42:16.984Z,12.56
2023-03-24T04:43:16.544Z,12.56
2023-03-24T04:44:17.104Z,12.59
2023-03-24T04:45:16.656Z,12.59
2023-03-24T04:46:17.269Z,12.56
2023-03-24T04:47:16.883Z,12.53
2023-03-24T04:48:16.412Z,12.52
2023-03-24T04:49:16.963Z,12.52
2023-03-24T04:50:16.534Z,12.53
2023-03-24T04:51:17.101Z,12.53
2023-03-24T04:52:17.855Z,12.52
2023-03-24T04:53:16.677Z,12.51
2023-03-24T04:54:17.293Z,12.52
2023-03-24T04:55:16.896Z,12.52
2023-03-24T04:56:16.453Z,12.52
2023-03-24T04:57:17.045Z,12.52
2023-03-24T04:58:16.604Z,12.53
2023-03-24T04:59:17.140Z,12.52
2023-03-24T05:00:16.691Z,12.52
2023-03-24T05:01:17.387Z,12.51
2023-03-24T05:02:17.104Z,12.53
2023-03-24T05:03:16.803Z,12.55
2023-03-24T05:04:16.379Z,12.53
2023-03-24T05:05:17.086Z,12.53
2023-03-24T05:06:16.628Z,12.56
2023-03-24T05:07:17.291Z,12.56
2023-03-24T05:08:16.886Z,12.60
2023-03-24T05:09:16.440Z,12.62
2023-03-24T05:10:17.015Z,12.58
2023-03-24T05:11:16.586Z,12.53
2023-03-24T05:12:17.285Z,12.53
2023-03-24T05:13:16.838Z,12.55
2023-03-24T05:14:16.404Z,12.49
2023-03-24T05:15:16.940Z,12.52
2023-03-24T05:16:16.512Z,12.48
2023-03-24T05:17:17.157Z,12.52
2023-03-24T05:18:16.716Z,12.51
2023-03-24T05:19:17.340Z,12.52
2023-03-24T05:20:16.905Z,12.56
2023-03-24T05:21:16.454Z,12.56
2023-03-24T05:22:16.426Z,12.58
2023-03-24T05:23:17.014Z,12.59
2023-03-24T05:24:16.603Z,12.59
2023-03-24T05:25:17.144Z,12.60
2023-03-24T05:26:16.690Z,12.60
2023-03-24T05:27:17.232Z,12.59
2023-03-24T05:28:16.782Z,12.60
2023-03-24T05:29:16.326Z,12.63
2023-03-24T05:30:16.873Z,12.69
2023-03-24T05:31:16.505Z,12.68
2023-03-24T05:32:16.469Z,12.73
2023-03-24T05:33:17.018Z,12.75
2023-03-24T05:34:16.564Z,12.75
2023-03-24T05:35:17.126Z,12.77
2023-03-24T05:36:16.772Z,12.80
2023-03-24T05:37:16.413Z,12.82
2023-03-24T05:38:16.978Z,12.80
2023-03-24T05:39:16.555Z,12.83
2023-03-24T05:40:17.101Z,12.90
2023-03-24T05:41:16.712Z,12.93
2023-03-24T05:42:16.352Z,12.92
2023-03-24T05:43:16.925Z,12.94
2023-03-24T05:44:16.517Z,12.96
2023-03-24T05:45:17.084Z,12.93
2023-03-24T05:46:16.688Z,12.97
2023-03-24T05:47:16.358Z,12.99
2023-03-24T05:48:16.919Z,13.00
2023-03-24T05:49:16.485Z,13.02
2023-03-24T05:50:17.036Z,13.02
2023-03-24T05:51:16.643Z,13.03
2023-03-24T05:52:16.491Z,13.06
2023-03-24T05:53:17.046Z,13.04
2023-03-24T05:54:16.597Z,13.04
2023-03-24T05:55:17.143Z,13.04
2023-03-24T05:56:16.716Z,13.06
2023-03-24T05:57:17.272Z,13.04
2023-03-24T05:58:16.831Z,13.04
2023-03-24T05:59:16.396Z,13.06
2023-03-24T06:00:16.989Z,13.08
2023-03-24T06:01:16.590Z,13.08
2023-03-24T06:02:17.282Z,13.11
2023-03-24T06:03:16.928Z,13.10
2023-03-24T06:04:17.062Z,13.10
2023-03-24T06:05:16.747Z,13.10
2023-03-24T06:06:17.332Z,13.08
2023-03-24T06:07:16.882Z,13.10
2023-03-24T06:08:16.425Z,13.14
2023-03-24T06:09:16.958Z,13.10
2023-03-24T06:10:16.494Z,13.14
2023-03-24T06:11:17.073Z,13.17
2023-03-24T06:12:16.951Z,13.20
2023-03-24T06:13:16.520Z,13.20
2023-03-24T06:14:17.068Z,13.18
2023-03-24T06:15:16.619Z,13.18
2023-03-24T06:16:17.258Z,13.18
2023-03-24T06:17:16.884Z,13.27
2023-03-24T06:18:16.505Z,13.27
2023-03-24T06:19:17.091Z,13.32
2023-03-24T06:20:16.657Z,13.37
2023-03-24T06:21:17.215Z,13.42
2023-03-24T06:22:17.283Z,13.43
2023-03-24T06:23:16.821Z,13.42
2023-03-24T06:24:16.364Z,13.42
2023-03-24T06:25:16.939Z,13.43
2023-03-24T06:26:16.514Z,13.45
2023-03-24T06:27:17.105Z,13.46
2023-03-24T06:28:16.686Z,13.48
2023-03-24T06:29:17.337Z,13.45
2023-03-24T06:30:16.907Z,13.48
2023-03-24T06:31:16.493Z,13.46
2023-03-24T06:32:16.548Z,13.45
2023-03-24T06:33:17.078Z,13.43
2023-03-24T06:34:16.635Z,13.43
2023-03-24T06:35:17.266Z,13.42
2023-03-24T06:36:16.910Z,13.48
2023-03-24T06:37:16.484Z,13.50
2023-03-24T06:38:17.037Z,13.52
2023-03-24T06:39:16.598Z,13.48
2023-03-24T06:40:17.197Z,13.49
2023-03-24T06:41:16.789Z,13.48
2023-03-24T06:42:16.840Z,13.46
2023-03-24T06:43:16.375Z,13.43
2023-03-24T06:44:16.970Z,13.43
2023-03-24T06:45:16.587Z,13.45
2023-03-24T06:46:17.135Z,13.49
2023-03-24T06:47:16.733Z,13.52
2023-03-24T06:48:17.300Z,13.55
2023-03-24T06:49:16.840Z,13.59
2023-03-24T06:50:16.400Z,13.62
2023-03-24T06:51:16.966Z,13.63
2023-03-24T06:52:16.974Z,13.56
2023-03-24T06:53:16.565Z,13.55
2023-03-24T06:54:17.135Z,13.59
2023-03-24T06:55:16.690Z,13.60
2023-03-24T06:56:17.278Z,13.65
2023-03-24T06:57:16.943Z,13.62
2023-03-24T06:58:16.505Z,13.66
2023-03-24T06:59:17.072Z,13.63
2023-03-24T07:00:16.617Z,13.63
2023-03-24T07:01:17.173Z,13.60
2023-03-24T07:02:16.868Z,13.60
2023-03-24T07:03:16.516Z,13.58
2023-03-24T07:04:17.246Z,13.59
2023-03-24T07:05:16.849Z,13.62
2023-03-24T07:06:16.414Z,13.60
2023-03-24T07:07:38.457Z,13.60
2023-03-24T07:08:34.472Z,13.62
2023-03-24T07:09:16.357Z,13.62
2023-03-24T07:10:16.889Z,13.63
2023-03-24T07:11:16.422Z,13.62
2023-03-24T07:12:16.668Z,13.59
2023-03-24T07:13:17.224Z,13.56
2023-03-24T07:14:16.770Z,13.50
2023-03-24T07:15:17.320Z,13.53
2023-03-24T07:16:16.905Z,13.52
2023-03-24T07:17:16.531Z,13.50
2023-03-24T07:18:17.114Z,13.52
2023-03-24T07:19:16.754Z,13.49
2023-03-24T07:20:17.318Z,13.46
2023-03-24T07:21:16.881Z,13.41
2023-03-24T07:22:17.202Z,13.41
2023-03-24T07:23:16.801Z,13.39
2023-03-24T07:24:16.386Z,13.38
2023-03-24T07:25:16.948Z,13.39
2023-03-24T07:26:16.476Z,13.38
2023-03-24T07:27:17.038Z,13.35
2023-03-24T07:28:16.682Z,13.37
2023-03-24T07:29:17.222Z,13.37
2023-03-24T07:30:18.064Z,13.34
2023-03-24T07:31:16.887Z,13.35
2023-03-24T07:32:16.394Z,13.34
2023-03-24T07:33:16.980Z,13.34
2023-03-24T07:34:16.527Z,13.27
2023-03-24T07:35:17.094Z,13.22
2023-03-24T07:36:16.695Z,13.22
2023-03-24T07:37:16.342Z,13.20
2023-03-24T07:38:16.913Z,13.21
2023-03-24T07:39:16.465Z,13.21
2023-03-24T07:40:17.051Z,13.24
2023-03-24T07:41:16.616Z,13.27
2023-03-24T07:42:16.566Z,13.28
2023-03-24T07:43:17.180Z,13.27
2023-03-24T07:44:16.744Z,13.28
2023-03-24T07:45:17.486Z,13.28
2023-03-24T07:46:17.166Z,13.30
2023-03-24T07:47:17.070Z,13.28
2023-03-24T07:48:16.658Z,13.28
2023-03-24T07:49:19.608Z,13.28
2023-03-24T07:50:16.806Z,13.27
2023-03-24T07:51:16.375Z,13.27
2023-03-24T07:52:17.089Z,13.31
2023-03-24T07:53:16.610Z,13.28
2023-03-24T07:54:17.144Z,13.28
2023-03-24T07:55:16.703Z,13.28
2023-03-24T07:56:17.275Z,13.28
2023-03-24T07:57:16.940Z,13.30
2023-03-24T07:58:16.595Z,13.30
2023-03-24T07:59:17.163Z,13.35
2023-03-24T08:00:16.850Z,13.38
2023-03-24T08:01:16.435Z,13.39
2023-03-24T08:02:16.669Z,13.38
2023-03-24T08:03:16.535Z,13.38
2023-03-24T08:04:16.426Z,13.39
2023-03-24T08:05:17.148Z,13.46
2023-03-24T08:06:16.687Z,13.46
2023-03-24T08:07:17.304Z,13.50
2023-03-24T08:08:16.853Z,13.52
2023-03-24T08:09:16.418Z,13.53
2023-03-24T08:10:17.035Z,13.53
2023-03-24T08:11:16.603Z,13.52
2023-03-24T08:12:20.251Z,13.52
2023-03-24T08:13:16.346Z,13.55
2023-03-24T08:14:16.894Z,13.50
2023-03-24T08:15:16.501Z,13.49
2023-03-24T08:16:17.066Z,13.50
2023-03-24T08:17:16.672Z,13.55
2023-03-24T08:18:17.217Z,13.53
2023-03-24T08:19:16.772Z,13.50
2023-03-24T08:20:16.339Z,13.50
2023-03-24T08:21:16.919Z,13.52
2023-03-24T08:22:16.651Z,13.49
2023-03-24T08:23:17.232Z,13.46
2023-03-24T08:24:16.794Z,13.52
2023-03-24T08:25:16.329Z,13.55
2023-03-24T08:26:16.900Z,13.55
2023-03-24T08:27:16.498Z,13.56
2023-03-24T08:28:17.051Z,13.56
2023-03-24T08:29:16.645Z,13.56
2023-03-24T08:30:17.224Z,13.55
2023-03-24T08:31:16.820Z,13.56
2023-03-24T08:32:16.993Z,13.55
2023-03-24T08:33:16.584Z,13.53
2023-03-24T08:34:16.356Z,13.52
2023-03-24T08:35:16.928Z,13.50
2023-03-24T08:36:16.485Z,13.48
2023-03-24T08:37:17.108Z,13.48
2023-03-24T08:38:18.688Z,13.49
2023-03-24T08:39:16.696Z,13.49
2023-03-24T08:40:17.235Z,13.42
2023-03-24T08:41:16.800Z,13.45
2023-03-24T08:42:16.617Z,13.45
2023-03-24T08:43:17.214Z,13.45
2023-03-24T08:44:16.795Z,13.45
2023-03-24T08:45:16.366Z,13.45
2023-03-24T08:46:16.980Z,13.42
2023-03-24T08:47:16.589Z,13.42
2023-03-24T08:48:17.120Z,13.39
2023-03-24T08:49:16.723Z,13.38
2023-03-24T08:50:17.271Z,13.39
2023-03-24T08:51:16.823Z,13.37
2023-03-24T08:52:17.004Z,13.35
2023-03-24T08:53:16.539Z,13.37
2023-03-24T08:54:17.112Z,13.38
2023-03-24T08:55:16.707Z,13.43
2023-03-24T08:56:17.290Z,13.42
2023-03-24T08:57:16.837Z,13.43
2023-03-24T08:58:16.382Z,13.39
2023-03-24T08:59:16.939Z,13.43
2023-03-24T09:00:16.518Z,13.41
2023-03-24T09:01:17.212Z,13.39
2023-03-24T09:02:16.400Z,13.41
2023-03-24T09:03:16.960Z,13.38
2023-03-24T09:04:16.538Z,13.39
2023-03-24T09:05:17.142Z,13.35
2023-03-24T09:06:16.763Z,13.37
2023-03-24T09:07:16.310Z,13.37
2023-03-24T09:08:16.886Z,13.35
2023-03-24T09:09:16.465Z,13.31
2023-03-24T09:10:17.021Z,13.32
2023-03-24T09:11:16.578Z,13.30
2023-03-24T09:12:16.942Z,13.28
2023-03-24T09:13:16.524Z,13.24
2023-03-24T09:14:16.413Z,13.25
2023-03-24T09:15:17.042Z,13.20
2023-03-24T09:16:16.658Z,13.18
2023-03-24T09:17:16.328Z,13.18
2023-03-24T09:18:16.879Z,13.11
2023-03-24T09:19:16.444Z,13.08
2023-03-24T09:20:17.019Z,13.08
2023-03-24T09:21:16.607Z,13.02
2023-03-24T09:22:17.214Z,13.00
2023-03-24T09:23:16.805Z,12.97
2023-03-24T09:24:16.385Z,12.94
2023-03-24T09:25:16.987Z,12.93
2023-03-24T09:26:16.674Z,12.88
2023-03-24T09:27:17.266Z,12.88
2023-03-24T09:28:16.854Z,12.87
2023-03-24T09:29:16.415Z,12.82
2023-03-24T09:30:16.969Z,12.82
2023-03-24T09:31:16.597Z,12.82
2023-03-24T09:32:16.661Z,12.82
2023-03-24T09:33:17.206Z,12.82
2023-03-24T09:34:16.733Z,12.76
2023-03-24T09:35:17.294Z,12.77
2023-03-24T09:36:16.953Z,12.76
2023-03-24T09:37:16.572Z,12.76
2023-03-24T09:38:17.144Z,12.76
2023-03-24T09:39:17.513Z,12.72
2023-03-24T09:40:16.490Z,12.70
2023-03-24T09:41:17.057Z,12.65
2023-03-24T09:42:16.849Z,12.69
2023-03-24T09:43:16.444Z,12.66
2023-03-24T09:44:16.987Z,12.70
2023-03-24T09:45:16.601Z,12.72
2023-03-24T09:46:17.193Z,12.70
2023-03-24T09:47:16.789Z,12.72
2023-03-24T09:48:16.359Z,12.75
2023-03-24T09:49:16.996Z,12.76
2023-03-24T09:50:16.567Z,12.77
2023-03-24T09:51:17.141Z,12.79
2023-03-24T09:52:17.151Z,12.83
2023-03-24T09:53:16.756Z,12.82
2023-03-24T09:54:16.322Z,12.86
2023-03-24T09:55:16.872Z,12.86
2023-03-24T09:56:16.446Z,12.83
2023-03-24T09:57:17.037Z,12.86
2023-03-24T09:58:16.663Z,12.93
2023-03-24T09:59:17.182Z,12.96
2023-03-24T10:00:16.743Z,13.02
2023-03-24T10:01:17.402Z,13.11
2023-03-24T10:02:16.922Z,13.18
2023-03-24T10:03:16.543Z,13.32
2023-03-24T10:04:17.304Z,13.48
2023-03-24T10:05:17.007Z,13.63
2023-03-24T10:06:16.587Z,13.70
2023-03-24T10:07:17.129Z,13.65
2023-03-24T10:08:16.705Z,13.60
2023-03-24T10:09:17.276Z,13.60
2023-03-24T10:10:16.847Z,13.62
2023-03-24T10:11:16.405Z,13.67
2023-03-24T10:12:17.297Z,13.73
2023-03-24T10:13:16.852Z,13.75
2023-03-24T10:14:16.392Z,13.75
2023-03-24T10:15:21.779Z,13.72
2023-03-24T10:16:17.100Z,13.89
2023-03-24T10:17:16.717Z,13.93
2023-03-24T10:18:17.274Z,13.82
2023-03-24T10:19:16.825Z,13.82
2023-03-24T10:20:16.429Z,13.86
2023-03-24T10:21:16.977Z,13.92
2023-03-24T10:22:16.662Z,13.92
2023-03-24T10:23:17.215Z,14.00
2023-03-24T10:24:16.807Z,14.14
2023-03-24T10:25:16.425Z,14.14
2023-03-24T10:26:17.108Z,14.11
2023-03-24T10:27:16.660Z,14.10
2023-03-24T10:28:17.198Z,14.08
2023-03-24T10:29:16.748Z,13.98
2023-03-24T10:30:17.292Z,13.94
2023-03-24T10:31:16.893Z,13.97
2023-03-24T10:32:16.990Z,14.03
2023-03-24T10:33:16.550Z,14.04
2023-03-24T10:34:17.217Z,14.04
2023-03-24T10:35:16.813Z,14.04
2023-03-24T10:36:16.422Z,14.05
2023-03-24T10:37:17.103Z,13.97
2023-03-24T10:38:16.690Z,13.97
2023-03-24T10:39:21.045Z,13.92
2023-03-24T10:40:16.687Z,14.00
2023-03-24T10:41:16.377Z,14.04
2023-03-24T10:42:16.801Z,14.14
2023-03-24T10:43:16.453Z,14.12
2023-03-24T10:44:17.014Z,14.12
2023-03-24T10:45:16.609Z,14.11
2023-03-24T10:46:17.219Z,14.05
2023-03-24T10:47:16.940Z,14.07
2023-03-24T10:48:16.521Z,14.08
2023-03-24T10:49:17.099Z,14.11
2023-03-24T10:50:16.641Z,14.12
2023-03-24T10:51:17.203Z,14.12
2023-03-24T10:52:17.253Z,14.08
2023-03-24T10:53:16.921Z,14.11
2023-03-24T10:54:16.520Z,14.11
2023-03-24T10:55:17.113Z,14.10
2023-03-24T10:56:16.649Z,14.10
2023-03-24T10:57:17.238Z,14.04
2023-03-24T10:58:16.798Z,14.04
2023-03-24T10:59:16.389Z,14.04
2023-03-24T11:00:16.974Z,14.05
2023-03-24T11:01:16.563Z,14.07
2023-03-24T11:02:16.399Z,14.07
2023-03-24T11:03:17.209Z,14.11
2023-03-24T11:04:17.005Z,14.12
2023-03-24T11:05:16.733Z,14.15
2023-03-24T11:06:17.292Z,14.18
2023-03-24T11:07:16.833Z,14.21
2023-03-24T11:08:16.359Z,14.21
2023-03-24T11:09:16.900Z,14.22
2023-03-24T11:10:16.443Z,14.22
2023-03-24T11:11:17.020Z,14.28
2023-03-24T11:12:16.793Z,14.31
2023-03-24T11:13:18.416Z,14.27
2023-03-24T11:14:16.525Z,14.27
2023-03-24T11:15:20.864Z,14.29
2023-03-24T11:16:16.890Z,14.27
2023-03-24T11:17:16.578Z,14.29
2023-03-24T11:18:17.190Z,14.33
2023-03-24T11:19:17.775Z,14.40
2023-03-24T11:20:17.044Z,14.42
2023-03-24T11:21:16.631Z,14.46
2023-03-24T11:22:17.154Z,14.46
2023-03-24T11:23:16.760Z,14.46
2023-03-24T11:24:16.318Z,14.45
2023-03-24T11:25:16.915Z,14.42
2023-03-24T11:26:16.497Z,14.36
2023-03-24T11:27:17.085Z,14.35
2023-03-24T11:28:16.629Z,14.35
2023-03-24T11:29:17.186Z,14.33
2023-03-24T11:30:16.753Z,14.32
2023-03-24T11:31:16.615Z,14.32
2023-03-24T11:32:17.212Z,14.35
2023-03-24T11:33:16.751Z,14.35
2023-03-24T11:34:17.300Z,14.33
2023-03-24T11:35:16.865Z,14.33
2023-03-24T11:36:16.426Z,14.33
2023-03-24T11:37:17.030Z,14.35
2023-03-24T11:38:16.599Z,14.36
2023-03-24T11:39:17.141Z,14.33
2023-03-24T11:40:16.842Z,14.31
2023-03-24T11:41:16.601Z,14.27
2023-03-24T11:42:17.062Z,14.25
2023-03-24T11:43:16.716Z,14.24
2023-03-24T11:44:17.277Z,14.21
2023-03-24T11:45:16.833Z,14.17
2023-03-24T11:46:16.398Z,14.15
2023-03-24T11:47:17.034Z,14.10
2023-03-24T11:48:16.590Z,14.05
2023-03-24T11:49:17.125Z,14.01
2023-03-24T11:50:16.713Z,14.00
2023-03-24T11:51:17.340Z,13.97
2023-03-24T11:52:17.124Z,13.98
2023-03-24T11:53:16.670Z,14.01
2023-03-24T11:54:17.228Z,14.10
2023-03-24T11:55:16.757Z,14.14
2023-03-24T11:56:16.443Z,14.15
2023-03-24T11:57:17.026Z,14.21
2023-03-24T11:58:16.712Z,14.21
2023-03-24T11:59:17.281Z,14.29
2023-03-24T12:00:16.878Z,14.35
2023-03-24T12:01:16.573Z,14.40
2023-03-24T12:02:16.451Z,14.40
2023-03-24T12:03:17.256Z,14.40
2023-03-24T12:04:17.007Z,14.42
2023-03-24T12:05:16.580Z,14.49
2023-03-24T12:06:17.245Z,14.46
2023-03-24T12:07:16.963Z,14.49
2023-03-24T12:08:16.515Z,14.53
2023-03-24T12:09:17.081Z,14.55
2023-03-24T12:10:16.802Z,14.56
2023-03-24T12:11:18.088Z,14.58
2023-03-24T12:12:16.884Z,14.56
2023-03-24T12:13:29.868Z,14.59
2023-03-24T12:14:16.600Z,14.62
2023-03-24T12:15:27.110Z,14.62
2023-03-24T12:16:16.603Z,14.63
2023-03-24T12:17:17.276Z,14.63
2023-03-24T12:18:16.844Z,14.65
2023-03-24T12:19:16.413Z,14.66
2023-03-24T12:20:16.939Z,14.66
2023-03-24T12:21:16.476Z,14.65
2023-03-24T12:22:17.286Z,14.66
2023-03-24T12:23:16.840Z,14.74
2023-03-24T12:24:16.410Z,14.74
2023-03-24T12:25:16.990Z,14.74
2023-03-24T12:26:16.565Z,14.79
2023-03-24T12:27:17.137Z,14.86
2023-03-24T12:28:17.196Z,14.88
2023-03-24T12:29:16.831Z,14.91
2023-03-24T12:30:16.416Z,14.95
2023-03-24T12:31:17.094Z,14.97
2023-03-24T12:32:16.694Z,14.98
2023-03-24T12:33:17.291Z,15.00
2023-03-24T12:34:16.859Z,15.01
2023-03-24T12:35:16.445Z,15.04
2023-03-24T12:36:17.133Z,15.08
2023-03-24T12:37:16.733Z,15.18
2023-03-24T12:38:17.289Z,15.19
2023-03-24T12:39:16.905Z,15.25
2023-03-24T12:40:16.600Z,15.29
2023-03-24T12:41:16.444Z,15.36
2023-03-24T12:42:16.664Z,15.36
2023-03-24T12:43:17.309Z,15.46
2023-03-24T12:44:16.849Z,15.45
2023-03-24T12:45:16.383Z,15.45
2023-03-24T12:46:17.001Z,15.50
2023-03-24T12:47:16.639Z,15.49
2023-03-24T12:48:17.186Z,15.53
2023-03-24T12:49:16.728Z,15.47
2023-03-24T12:50:17.272Z,15.43
2023-03-24T12:51:16.836Z,15.43
2023-03-24T12:52:16.564Z,15.43